sensor_id;sensor_type;location;lat;lon;timestamp;pressure;altitude;pressure_sealevel;temperature;humidity
27958;BME280;15295;42.658;23.374;2023-03-04T00:00:24;94611.69;;;11.58;55.43
27958;BME280;15295;42.658;23.374;2023-03-04T00:02:50;94629.59;;;11.70;55.30
27958;BME280;15295;42.658;23.374;2023-03-04T00:05:15;94621.00;;;11.64;55.32
27958;BME280;15295;42.658;23.374;2023-03-04T00:07:40;94606.97;;;11.62;55.48
27958;BME280;15295;42.658;23.374;2023-03-04T00:10:15;94633.81;;;11.82;55.35
27958;BME280;15295;42.658;23.374;2023-03-04T00:12:41;94597.16;;;11.65;55.15
27958;BME280;15295;42.658;23.374;2023-03-04T00:15:11;94614.28;;;11.80;55.45
27958;BME280;15295;42.658;23.374;2023-03-04T00:17:37;94581.16;;;11.60;55.07
27958;BME280;15295;42.658;23.374;2023-03-04T00:20:09;94613.81;;;11.85;55.07
27958;BME280;15295;42.658;23.374;2023-03-04T00:22:37;94580.38;;;11.59;54.96
27958;BME280;15295;42.658;23.374;2023-03-04T00:25:07;94603.38;;;11.73;54.71
27958;BME280;15295;42.658;23.374;2023-03-04T00:27:32;94596.00;;;11.59;55.17
27958;BME280;15295;42.658;23.374;2023-03-04T00:30:08;94617.44;;;11.78;54.80
27958;BME280;15295;42.658;23.374;2023-03-04T00:32:36;94611.19;;;11.74;54.92
27958;BME280;15295;42.658;23.374;2023-03-04T00:35:03;94585.94;;;11.49;54.91
27958;BME280;15295;42.658;23.374;2023-03-04T00:37:29;94591.38;;;11.56;54.94
27958;BME280;15295;42.658;23.374;2023-03-04T00:40:01;94563.25;;;11.52;54.84
27958;BME280;15295;42.658;23.374;2023-03-04T00:42:26;94539.16;;;11.33;54.76
27958;BME280;15295;42.658;23.374;2023-03-04T00:44:55;94550.47;;;11.35;54.76
27958;BME280;15295;42.658;23.374;2023-03-04T00:47:21;94613.91;;;11.74;54.55
27958;BME280;15295;42.658;23.374;2023-03-04T00:49:47;94616.28;;;11.76;54.78
27958;BME280;15295;42.658;23.374;2023-03-04T00:54:52;94587.81;;;11.59;54.94
27958;BME280;15295;42.658;23.374;2023-03-04T00:57:17;94583.88;;;11.63;54.61
27958;BME280;15295;42.658;23.374;2023-03-04T00:59:43;94564.41;;;11.51;54.72
27958;BME280;15295;42.658;23.374;2023-03-04T01:02:11;94587.00;;;11.69;54.81
27958;BME280;15295;42.658;23.374;2023-03-04T01:07:11;94581.97;;;11.57;54.69
27958;BME280;15295;42.658;23.374;2023-03-04T01:12:21;94549.25;;;11.43;54.66
27958;BME280;15295;42.658;23.374;2023-03-04T01:14:46;94602.16;;;11.77;54.64
27958;BME280;15295;42.658;23.374;2023-03-04T01:19:48;94523.13;;;11.31;54.76
27958;BME280;15295;42.658;23.374;2023-03-04T01:22:14;94586.16;;;11.76;54.85
27958;BME280;15295;42.658;23.374;2023-03-04T01:24:42;94567.47;;;11.60;54.87
27958;BME280;15295;42.658;23.374;2023-03-04T01:27:07;94576.81;;;11.66;54.90
27958;BME280;15295;42.658;23.374;2023-03-04T01:29:38;94562.84;;;11.53;54.82
27958;BME280;15295;42.658;23.374;2023-03-04T01:32:08;94576.75;;;11.77;54.63
27958;BME280;15295;42.658;23.374;2023-03-04T01:34:34;94537.41;;;11.53;54.74
27958;BME280;15295;42.658;23.374;2023-03-04T01:37:17;94573.69;;;11.71;54.87
27958;BME280;15295;42.658;23.374;2023-03-04T01:40:22;94574.00;;;11.77;54.94
27958;BME280;15295;42.658;23.374;2023-03-04T01:42:48;94546.00;;;11.58;54.84
27958;BME280;15295;42.658;23.374;2023-03-04T01:45:25;94549.06;;;11.64;54.95
27958;BME280;15295;42.658;23.374;2023-03-04T01:47:52;94519.47;;;11.48;54.85
27958;BME280;15295;42.658;23.374;2023-03-04T01:50:27;94546.69;;;11.66;54.46
27958;BME280;15295;42.658;23.374;2023-03-04T01:53:17;94541.31;;;11.55;54.51
27958;BME280;15295;42.658;23.374;2023-03-04T01:56:15;94565.47;;;11.71;54.32
27958;BME280;15295;42.658;23.374;2023-03-04T01:59:23;94567.41;;;11.71;54.24
27958;BME280;15295;42.658;23.374;2023-03-04T02:02:15;94558.06;;;11.64;54.18
27958;BME280;15295;42.658;23.374;2023-03-04T02:04:43;94547.22;;;11.50;54.41
27958;BME280;15295;42.658;23.374;2023-03-04T02:07:18;94557.00;;;11.51;54.41
27958;BME280;15295;42.658;23.374;2023-03-04T02:09:44;94541.06;;;11.39;54.30
27958;BME280;15295;42.658;23.374;2023-03-04T02:17:51;94485.41;;;11.09;54.11
27958;BME280;15295;42.658;23.374;2023-03-04T02:26:26;94564.41;;;11.51;54.21
27958;BME280;15295;42.658;23.374;2023-03-04T02:28:54;94516.94;;;11.24;54.19
27958;BME280;15295;42.658;23.374;2023-03-04T02:34:34;94548.03;;;11.47;54.28
27958;BME280;15295;42.658;23.374;2023-03-04T02:37:01;94555.38;;;11.57;54.36
27958;BME280;15295;42.658;23.374;2023-03-04T02:39:33;94544.09;;;11.48;54.12
27958;BME280;15295;42.658;23.374;2023-03-04T02:42:00;94526.59;;;11.39;54.26
27958;BME280;15295;42.658;23.374;2023-03-04T02:44:29;94501.72;;;11.23;54.17
27958;BME280;15295;42.658;23.374;2023-03-04T02:46:56;94546.41;;;11.53;53.91
27958;BME280;15295;42.658;23.374;2023-03-04T02:49:25;94542.53;;;11.51;54.08
27958;BME280;15295;42.658;23.374;2023-03-04T02:52:16;94542.16;;;11.49;53.98
27958;BME280;15295;42.658;23.374;2023-03-04T02:54:42;94507.88;;;11.37;53.81
27958;BME280;15295;42.658;23.374;2023-03-04T02:57:11;94483.75;;;11.22;53.62
27958;BME280;15295;42.658;23.374;2023-03-04T02:59:38;94514.47;;;11.43;53.68
27958;BME280;15295;42.658;23.374;2023-03-04T03:02:05;94525.72;;;11.49;53.62
27958;BME280;15295;42.658;23.374;2023-03-04T03:04:33;94543.59;;;11.64;53.78
27958;BME280;15295;42.658;23.374;2023-03-04T03:07:00;94524.16;;;11.51;53.68
27958;BME280;15295;42.658;23.374;2023-03-04T03:09:29;94490.81;;;11.19;53.85
27958;BME280;15295;42.658;23.374;2023-03-04T03:12:04;94508.69;;;11.31;54.04
27958;BME280;15295;42.658;23.374;2023-03-04T03:14:30;94533.63;;;11.40;54.13
27958;BME280;15295;42.658;23.374;2023-03-04T03:16:59;94509.88;;;11.30;53.92
27958;BME280;15295;42.658;23.374;2023-03-04T03:19:30;94544.47;;;11.54;53.79
27958;BME280;15295;42.658;23.374;2023-03-04T03:22:02;94508.75;;;11.24;53.72
27958;BME280;15295;42.658;23.374;2023-03-04T03:24:30;94533.25;;;11.38;53.76
27958;BME280;15295;42.658;23.374;2023-03-04T03:27:03;94535.97;;;11.41;53.92
27958;BME280;15295;42.658;23.374;2023-03-04T03:29:28;94513.44;;;11.23;53.95
27958;BME280;15295;42.658;23.374;2023-03-04T03:32:00;94542.53;;;11.51;53.84
27958;BME280;15295;42.658;23.374;2023-03-04T03:34:49;94527.31;;;11.46;53.71
27958;BME280;15295;42.658;23.374;2023-03-04T03:37:16;94532.72;;;11.53;53.41
27958;BME280;15295;42.658;23.374;2023-03-04T03:39:43;94484.56;;;11.19;53.43
27958;BME280;15295;42.658;23.374;2023-03-04T03:42:10;94486.53;;;11.15;53.53
27958;BME280;15295;42.658;23.374;2023-03-04T03:44:41;94468.69;;;11.00;53.51
27958;BME280;15295;42.658;23.374;2023-03-04T03:47:07;94471.41;;;11.03;53.33
27958;BME280;15295;42.658;23.374;2023-03-04T03:49:33;94483.03;;;11.14;53.28
27958;BME280;15295;42.658;23.374;2023-03-04T03:52:02;94472.56;;;11.02;53.40
27958;BME280;15295;42.658;23.374;2023-03-04T03:54:29;94496.72;;;11.11;53.15
27958;BME280;15295;42.658;23.374;2023-03-04T03:56:54;94460.16;;;10.91;53.33
27958;BME280;15295;42.658;23.374;2023-03-04T03:59:20;94483.88;;;11.04;53.32
27958;BME280;15295;42.658;23.374;2023-03-04T04:01:51;94499.84;;;11.13;53.23
27958;BME280;15295;42.658;23.374;2023-03-04T04:04:23;94522.00;;;11.25;53.44
27958;BME280;15295;42.658;23.374;2023-03-04T04:06:56;94491.31;;;11.07;53.38
27958;BME280;15295;42.658;23.374;2023-03-04T04:09:24;94487.41;;;11.05;53.35
27958;BME280;15295;42.658;23.374;2023-03-04T04:11:55;94478.13;;;10.92;53.34
27958;BME280;15295;42.658;23.374;2023-03-04T04:14:23;94522.09;;;11.18;53.58
27958;BME280;15295;42.658;23.374;2023-03-04T04:16:48;94510.03;;;11.09;53.64
27958;BME280;15295;42.658;23.374;2023-03-04T04:19:18;94487.13;;;10.92;53.66
27958;BME280;15295;42.658;23.374;2023-03-04T04:21:47;94470.78;;;10.81;53.59
27958;BME280;15295;42.658;23.374;2023-03-04T04:27:03;94518.66;;;11.04;53.88
27958;BME280;15295;42.658;23.374;2023-03-04T04:29:29;94484.88;;;10.76;54.00
27958;BME280;15295;42.658;23.374;2023-03-04T04:31:55;94507.41;;;10.91;53.97
27958;BME280;15295;42.658;23.374;2023-03-04T04:34:20;94519.09;;;10.95;54.06
27958;BME280;15295;42.658;23.374;2023-03-04T04:36:46;94517.19;;;10.92;54.16
27958;BME280;15295;42.658;23.374;2023-03-04T04:39:12;94517.16;;;10.96;54.13
27958;BME280;15295;42.658;23.374;2023-03-04T04:41:40;94514.47;;;10.88;54.38
27958;BME280;15295;42.658;23.374;2023-03-04T04:44:06;94493.50;;;10.68;54.43
27958;BME280;15295;42.658;23.374;2023-03-04T04:46:31;94512.53;;;10.85;54.49
27958;BME280;15295;42.658;23.374;2023-03-04T04:48:57;94513.72;;;10.81;54.59
27958;BME280;15295;42.658;23.374;2023-03-04T04:51:23;94492.75;;;10.64;54.78
27958;BME280;15295;42.658;23.374;2023-03-04T04:53:52;94500.50;;;10.72;54.82
27958;BME280;15295;42.658;23.374;2023-03-04T05:01:41;94517.72;;;10.66;54.85
27958;BME280;15295;42.658;23.374;2023-03-04T05:04:25;94512.22;;;10.69;54.81
27958;BME280;15295;42.658;23.374;2023-03-04T05:06:50;94482.72;;;10.43;54.10
27958;BME280;15295;42.658;23.374;2023-03-04T05:09:15;94527.13;;;10.61;53.51
27958;BME280;15295;42.658;23.374;2023-03-04T05:11:41;94529.47;;;10.59;53.22
27958;BME280;15295;42.658;23.374;2023-03-04T05:14:13;94536.50;;;10.60;53.05
27958;BME280;15295;42.658;23.374;2023-03-04T05:16:39;94533.41;;;10.58;52.68
27958;BME280;15295;42.658;23.374;2023-03-04T05:19:04;94534.16;;;10.59;52.80
27958;BME280;15295;42.658;23.374;2023-03-04T05:21:29;94541.97;;;10.60;53.22
27958;BME280;15295;42.658;23.374;2023-03-04T05:23:56;94521.28;;;10.52;53.33
27958;BME280;15295;42.658;23.374;2023-03-04T05:26:22;94513.91;;;10.49;53.54
27958;BME280;15295;42.658;23.374;2023-03-04T05:29:18;94550.50;;;10.69;53.78
27958;BME280;15295;42.658;23.374;2023-03-04T05:31:47;94522.50;;;10.51;53.73
27958;BME280;15295;42.658;23.374;2023-03-04T05:34:15;94550.50;;;10.73;53.41
27958;BME280;15295;42.658;23.374;2023-03-04T05:36:44;94548.53;;;10.70;53.04
27958;BME280;15295;42.658;23.374;2023-03-04T05:39:15;94529.84;;;10.61;53.24
27958;BME280;15295;42.658;23.374;2023-03-04T05:41:44;94535.28;;;10.68;53.69
27958;BME280;15295;42.658;23.374;2023-03-04T05:44:21;94555.50;;;10.85;53.71
27958;BME280;15295;42.658;23.374;2023-03-04T05:46:47;94539.59;;;10.66;53.82
27958;BME280;15295;42.658;23.374;2023-03-04T05:49:12;94533.75;;;10.64;53.87
27958;BME280;15295;42.658;23.374;2023-03-04T05:51:37;94555.91;;;10.80;54.13
27958;BME280;15295;42.658;23.374;2023-03-04T05:54:03;94535.63;;;10.74;53.92
27958;BME280;15295;42.658;23.374;2023-03-04T05:56:33;94538.75;;;10.79;54.06
27958;BME280;15295;42.658;23.374;2023-03-04T05:58:59;94545.31;;;10.89;53.74
27958;BME280;15295;42.658;23.374;2023-03-04T06:01:25;94564.00;;;11.01;53.49
27958;BME280;15295;42.658;23.374;2023-03-04T06:03:50;94554.69;;;10.92;53.75
27958;BME280;15295;42.658;23.374;2023-03-04T06:06:16;94557.41;;;10.92;53.80
27958;BME280;15295;42.658;23.374;2023-03-04T06:08:41;94563.19;;;11.04;53.82
27958;BME280;15295;42.658;23.374;2023-03-04T06:11:07;94570.16;;;11.16;53.65
27958;BME280;15295;42.658;23.374;2023-03-04T06:13:34;94573.63;;;11.23;53.75
27958;BME280;15295;42.658;23.374;2023-03-04T06:16:00;94576.34;;;11.23;53.83
27958;BME280;15295;42.658;23.374;2023-03-04T06:18:27;94579.47;;;11.29;53.61
27958;BME280;15295;42.658;23.374;2023-03-04T06:20:57;94579.88;;;11.24;53.75
27958;BME280;15295;42.658;23.374;2023-03-04T06:23:23;94584.16;;;11.25;53.22
27958;BME280;15295;42.658;23.374;2023-03-04T06:25:53;94560.03;;;11.09;53.42
27958;BME280;15295;42.658;23.374;2023-03-04T06:28:18;94564.28;;;11.17;53.54
27958;BME280;15295;42.658;23.374;2023-03-04T06:30:45;94568.13;;;11.27;53.23
27958;BME280;15295;42.658;23.374;2023-03-04T06:33:19;94541.69;;;11.10;53.17
27958;BME280;15295;42.658;23.374;2023-03-04T06:35:45;94588.41;;;11.33;53.33
27958;BME280;15295;42.658;23.374;2023-03-04T06:38:10;94581.28;;;11.42;53.17
27958;BME280;15295;42.658;23.374;2023-03-04T06:40:35;94582.00;;;11.53;52.18
27958;BME280;15295;42.658;23.374;2023-03-04T06:43:01;94566.09;;;11.38;51.45
27958;BME280;15295;42.658;23.374;2023-03-04T06:45:28;94574.28;;;11.41;50.89
27958;BME280;15295;42.658;23.374;2023-03-04T06:47:54;94560.34;;;11.22;50.72
27958;BME280;15295;42.658;23.374;2023-03-04T06:50:20;94542.44;;;11.14;50.83
27958;BME280;15295;42.658;23.374;2023-03-04T06:52:45;94586.75;;;11.42;51.08
27958;BME280;15295;42.658;23.374;2023-03-04T06:55:12;94596.88;;;11.49;51.04
27958;BME280;15295;42.658;23.374;2023-03-04T06:57:38;94590.63;;;11.48;51.19
27958;BME280;15295;42.658;23.374;2023-03-04T07:00:04;94594.19;;;11.45;51.01
27958;BME280;15295;42.658;23.374;2023-03-04T07:02:32;94598.50;;;11.43;51.27
27958;BME280;15295;42.658;23.374;2023-03-04T07:04:57;94577.09;;;11.31;51.34
27958;BME280;15295;42.658;23.374;2023-03-04T07:07:23;94574.72;;;11.33;51.38
27958;BME280;15295;42.658;23.374;2023-03-04T07:09:50;94606.25;;;11.51;51.25
27958;BME280;15295;42.658;23.374;2023-03-04T07:12:15;94601.59;;;11.45;51.24
27958;BME280;15295;42.658;23.374;2023-03-04T07:14:41;94600.03;;;11.47;51.05
27958;BME280;15295;42.658;23.374;2023-03-04T07:17:21;94586.13;;;11.24;51.34
27958;BME280;15295;42.658;23.374;2023-03-04T07:19:46;94595.50;;;11.27;51.40
27958;BME280;15295;42.658;23.374;2023-03-04T07:22:13;94596.63;;;11.33;51.34
27958;BME280;15295;42.658;23.374;2023-03-04T07:24:38;94605.53;;;11.40;51.21
27958;BME280;15295;42.658;23.374;2023-03-04T07:27:11;94605.13;;;11.42;51.42
27958;BME280;15295;42.658;23.374;2023-03-04T07:29:36;94589.94;;;11.34;51.38
27958;BME280;15295;42.658;23.374;2023-03-04T07:32:06;94600.06;;;11.44;51.53
27958;BME280;15295;42.658;23.374;2023-03-04T07:34:31;94566.19;;;11.24;51.54
27958;BME280;15295;42.658;23.374;2023-03-04T07:36:57;94609.03;;;11.48;51.17
27958;BME280;15295;42.658;23.374;2023-03-04T07:39:25;94607.06;;;11.45;51.32
27958;BME280;15295;42.658;23.374;2023-03-04T07:41:52;94598.53;;;11.39;51.19
27958;BME280;15295;42.658;23.374;2023-03-04T07:44:18;94614.13;;;11.46;51.44
27958;BME280;15295;42.658;23.374;2023-03-04T07:46:43;94597.00;;;11.35;51.61
27958;BME280;15295;42.658;23.374;2023-03-04T07:49:11;94603.19;;;11.46;51.98
27958;BME280;15295;42.658;23.374;2023-03-04T07:51:37;94606.59;;;11.57;51.99
27958;BME280;15295;42.658;23.374;2023-03-04T07:54:03;94606.53;;;11.64;52.06
27958;BME280;15295;42.658;23.374;2023-03-04T07:56:32;94608.44;;;11.74;51.80
27958;BME280;15295;42.658;23.374;2023-03-04T07:58:58;94605.34;;;11.72;51.82
27958;BME280;15295;42.658;23.374;2023-03-04T08:01:29;94609.13;;;11.85;51.76
27958;BME280;15295;42.658;23.374;2023-03-04T08:03:55;94580.34;;;11.67;51.39
27958;BME280;15295;42.658;23.374;2023-03-04T08:06:26;94595.94;;;11.73;52.03
27958;BME280;15295;42.658;23.374;2023-03-04T08:11:29;94577.63;;;11.67;51.98
27958;BME280;15295;42.658;23.374;2023-03-04T08:13:57;94586.53;;;11.74;51.88
27958;BME280;15295;42.658;23.374;2023-03-04T08:16:26;94585.41;;;11.72;52.04
27958;BME280;15295;42.658;23.374;2023-03-04T08:18:57;94544.56;;;11.43;51.81
27958;BME280;15295;42.658;23.374;2023-03-04T08:21:44;94582.59;;;11.79;51.99
27958;BME280;15295;42.658;23.374;2023-03-04T08:24:10;94544.38;;;11.68;52.04
27958;BME280;15295;42.658;23.374;2023-03-04T08:26:54;94533.78;;;11.74;51.94
27958;BME280;15295;42.658;23.374;2023-03-04T08:29:21;94531.31;;;11.86;51.86
27958;BME280;15295;42.658;23.374;2023-03-04T08:31:51;94528.53;;;11.90;51.35
27958;BME280;15295;42.658;23.374;2023-03-04T08:34:26;94592.91;;;12.46;51.20
27958;BME280;15295;42.658;23.374;2023-03-04T08:36:56;94571.88;;;12.35;51.28
27958;BME280;15295;42.658;23.374;2023-03-04T08:39:29;94558.69;;;12.23;51.27
27958;BME280;15295;42.658;23.374;2023-03-04T08:42:00;94527.56;;;12.07;50.98
27958;BME280;15295;42.658;23.374;2023-03-04T08:47:00;94563.16;;;12.44;50.81
27958;BME280;15295;42.658;23.374;2023-03-04T08:49:26;94578.16;;;12.66;50.58
27958;BME280;15295;42.658;23.374;2023-03-04T08:51:51;94586.72;;;12.72;50.67
27958;BME280;15295;42.658;23.374;2023-03-04T08:54:17;94570.78;;;12.63;50.75
27958;BME280;15295;42.658;23.374;2023-03-04T08:56:42;94566.88;;;12.61;50.55
27958;BME280;15295;42.658;23.374;2023-03-04T08:59:07;94566.88;;;12.61;50.39
27958;BME280;15295;42.658;23.374;2023-03-04T09:01:33;94580.50;;;12.68;50.44
27958;BME280;15295;42.658;23.374;2023-03-04T09:03:58;94580.44;;;12.71;50.60
27958;BME280;15295;42.658;23.374;2023-03-04T09:06:24;94567.53;;;12.72;50.52
27958;BME280;15295;42.658;23.374;2023-03-04T09:08:51;94570.50;;;12.84;50.21
27958;BME280;15295;42.658;23.374;2023-03-04T09:11:17;94564.44;;;12.96;51.50
27958;BME280;15295;42.658;23.374;2023-03-04T09:13:42;94558.50;;;13.01;50.36
27958;BME280;15295;42.658;23.374;2023-03-04T09:16:26;94567.50;;;13.05;49.99
27958;BME280;15295;42.658;23.374;2023-03-04T09:19:04;94577.88;;;13.21;49.71
27958;BME280;15295;42.658;23.374;2023-03-04T09:21:34;94560.56;;;13.24;49.84
27958;BME280;15295;42.658;23.374;2023-03-04T09:23:59;94554.56;;;13.33;49.03
27958;BME280;15295;42.658;23.374;2023-03-04T09:26:27;94569.16;;;13.53;48.70
27958;BME280;15295;42.658;23.374;2023-03-04T09:28:55;94561.34;;;13.51;48.22
27958;BME280;15295;42.658;23.374;2023-03-04T09:40:44;94549.59;;;13.74;46.97
27958;BME280;15295;42.658;23.374;2023-03-04T09:43:16;94557.19;;;13.89;46.75
27958;BME280;15295;42.658;23.374;2023-03-04T09:45:48;94551.25;;;13.91;46.06
27958;BME280;15295;42.658;23.374;2023-03-04T09:48:20;94547.09;;;13.83;45.95
27958;BME280;15295;42.658;23.374;2023-03-04T09:51:17;94541.34;;;13.74;45.98
27958;BME280;15295;42.658;23.374;2023-03-04T09:56:27;94551.72;;;13.86;46.05
27958;BME280;15295;42.658;23.374;2023-03-04T09:59:28;94538.91;;;14.03;46.00
27958;BME280;15295;42.658;23.374;2023-03-04T10:01:56;94550.53;;;14.10;45.83
27958;BME280;15295;42.658;23.374;2023-03-04T10:04:50;94530.88;;;14.12;45.62
27958;BME280;15295;42.658;23.374;2023-03-04T10:07:25;94495.06;;;13.96;45.25
27958;BME280;15295;42.658;23.374;2023-03-04T10:10:10;94535.28;;;14.29;45.31
27958;BME280;15295;42.658;23.374;2023-03-04T10:12:38;94531.41;;;14.26;44.82
27958;BME280;15295;42.658;23.374;2023-03-04T10:15:22;94527.34;;;14.34;44.28
27958;BME280;15295;42.658;23.374;2023-03-04T10:17:55;94524.66;;;14.31;44.25
27958;BME280;15295;42.658;23.374;2023-03-04T10:20:26;94524.16;;;14.36;44.27
27958;BME280;15295;42.658;23.374;2023-03-04T10:22:57;94511.69;;;14.31;44.53
27958;BME280;15295;42.658;23.374;2023-03-04T10:25:28;94529.53;;;14.43;44.58
27958;BME280;15295;42.658;23.374;2023-03-04T10:28:11;94516.97;;;14.42;44.95
27958;BME280;15295;42.658;23.374;2023-03-04T10:33:26;94504.31;;;14.25;45.08
27958;BME280;15295;42.658;23.374;2023-03-04T10:38:39;94492.09;;;14.29;45.12
27958;BME280;15295;42.658;23.374;2023-03-04T10:43:33;94487.38;;;14.49;45.56
27958;BME280;15295;42.658;23.374;2023-03-04T11:08:58;94427.47;;;15.25;42.99
27958;BME280;15295;42.658;23.374;2023-03-04T11:13:58;94443.47;;;15.78;42.41
27958;BME280;15295;42.658;23.374;2023-03-04T11:16:30;94427.13;;;15.71;41.95
27958;BME280;15295;42.658;23.374;2023-03-04T11:19:13;94425.13;;;15.72;41.40
27958;BME280;15295;42.658;23.374;2023-03-04T11:21:40;94442.66;;;15.65;41.52
27958;BME280;15295;42.658;23.374;2023-03-04T11:24:16;94425.75;;;15.63;42.00
27958;BME280;15295;42.658;23.374;2023-03-04T11:29:35;94422.03;;;15.70;42.07
27958;BME280;15295;42.658;23.374;2023-03-04T11:32:21;94418.94;;;15.68;41.67
27958;BME280;15295;42.658;23.374;2023-03-04T11:34:59;94421.19;;;15.73;41.72
27958;BME280;15295;42.658;23.374;2023-03-04T11:42:44;94411.34;;;15.88;41.42
27958;BME280;15295;42.658;23.374;2023-03-04T11:45:14;94406.16;;;15.90;41.25
27958;BME280;15295;42.658;23.374;2023-03-04T11:55:40;94397.25;;;15.70;41.44
27958;BME280;15295;42.658;23.374;2023-03-04T12:04:13;94380.19;;;15.75;41.16
27958;BME280;15295;42.658;23.374;2023-03-04T12:23:45;94371.75;;;15.37;42.40
27958;BME280;15295;42.658;23.374;2023-03-04T12:34:42;94362.88;;;15.46;42.45
27958;BME280;15295;42.658;23.374;2023-03-04T12:53:31;94343.31;;;15.40;41.77
27958;BME280;15295;42.658;23.374;2023-03-04T12:55:58;94343.28;;;15.43;41.91
27958;BME280;15295;42.658;23.374;2023-03-04T12:58:29;94330.94;;;15.32;42.01
27958;BME280;15295;42.658;23.374;2023-03-04T13:01:06;94323.66;;;15.25;42.47
27958;BME280;15295;42.658;23.374;2023-03-04T13:08:52;94325.44;;;15.32;42.07
27958;BME280;15295;42.658;23.374;2023-03-04T13:11:38;94320.66;;;15.20;42.72
27958;BME280;15295;42.658;23.374;2023-03-04T13:14:21;94324.19;;;15.20;42.68
27958;BME280;15295;42.658;23.374;2023-03-04T13:16:53;94320.66;;;15.20;42.76
27958;BME280;15295;42.658;23.374;2023-03-04T13:19:48;94317.69;;;15.27;42.86
27958;BME280;15295;42.658;23.374;2023-03-04T13:43:59;94292.97;;;15.11;42.74
27958;BME280;15295;42.658;23.374;2023-03-04T13:56:36;94293.16;;;15.04;43.20
27958;BME280;15295;42.658;23.374;2023-03-04T14:06:54;94272.81;;;14.85;43.69
27958;BME280;15295;42.658;23.374;2023-03-04T14:09:26;94280.78;;;14.96;43.71
27958;BME280;15295;42.658;23.374;2023-03-04T14:11:54;94281.56;;;14.96;43.83
27958;BME280;15295;42.658;23.374;2023-03-04T14:14:27;94262.38;;;14.93;43.46
27958;BME280;15295;42.658;23.374;2023-03-04T14:16:55;94281.19;;;15.10;43.45
27958;BME280;15295;42.658;23.374;2023-03-04T14:19:34;94258.38;;;15.10;43.21
27958;BME280;15295;42.658;23.374;2023-03-04T14:22:16;94253.94;;;15.16;43.17
27958;BME280;15295;42.658;23.374;2023-03-04T14:25:24;94269.59;;;15.31;43.24
27958;BME280;15295;42.658;23.374;2023-03-04T14:27:49;94268.06;;;15.30;43.22
27958;BME280;15295;42.658;23.374;2023-03-04T14:30:21;94249.66;;;15.27;43.36
27958;BME280;15295;42.658;23.374;2023-03-04T14:32:47;94242.84;;;15.32;42.92
27958;BME280;15295;42.658;23.374;2023-03-04T14:35:23;94267.84;;;15.54;42.70
27958;BME280;15295;42.658;23.374;2023-03-04T14:40:47;94232.63;;;15.32;42.64
27958;BME280;15295;42.658;23.374;2023-03-04T14:43:21;94231.66;;;15.39;42.50
27958;BME280;15295;42.658;23.374;2023-03-04T14:45:52;94252.19;;;15.51;42.34
27958;BME280;15295;42.658;23.374;2023-03-04T14:48:26;94239.91;;;15.39;42.35
27958;BME280;15295;42.658;23.374;2023-03-04T14:50:54;94236.50;;;15.35;42.51
27958;BME280;15295;42.658;23.374;2023-03-04T14:53:22;94244.31;;;15.36;42.75
27958;BME280;15295;42.658;23.374;2023-03-04T14:55:57;94248.81;;;15.30;42.91
27958;BME280;15295;42.658;23.374;2023-03-04T14:58:26;94239.66;;;15.33;42.84
27958;BME280;15295;42.658;23.374;2023-03-04T15:01:22;94220.34;;;15.21;43.03
27958;BME280;15295;42.658;23.374;2023-03-04T15:04:08;94239.09;;;15.26;42.93
27958;BME280;15295;42.658;23.374;2023-03-04T15:06:46;94237.63;;;15.21;43.09
27958;BME280;15295;42.658;23.374;2023-03-04T15:09:23;94235.84;;;15.15;43.29
27958;BME280;15295;42.658;23.374;2023-03-04T15:11:59;94230.88;;;15.10;43.44
27958;BME280;15295;42.658;23.374;2023-03-04T15:14:59;94228.59;;;15.21;44.72
27958;BME280;15295;42.658;23.374;2023-03-04T15:17:38;94227.06;;;15.20;43.99
27958;BME280;15295;42.658;23.374;2023-03-04T15:22:33;94218.56;;;15.14;43.48
27958;BME280;15295;42.658;23.374;2023-03-04T15:24:59;94223.53;;;15.19;43.29
27958;BME280;15295;42.658;23.374;2023-03-04T15:27:26;94216.75;;;15.24;43.22
27958;BME280;15295;42.658;23.374;2023-03-04T15:29:53;94215.06;;;15.14;43.40
27958;BME280;15295;42.658;23.374;2023-03-04T15:32:29;94203.91;;;15.05;43.57
27958;BME280;15295;42.658;23.374;2023-03-04T15:34:55;94211.38;;;15.04;43.60
27958;BME280;15295;42.658;23.374;2023-03-04T15:37:24;94198.56;;;14.98;43.60
27958;BME280;15295;42.658;23.374;2023-03-04T15:39:51;94189.53;;;14.97;43.66
27958;BME280;15295;42.658;23.374;2023-03-04T15:42:17;94185.34;;;14.93;43.61
27958;BME280;15295;42.658;23.374;2023-03-04T15:44:43;94201.28;;;14.85;43.79
27958;BME280;15295;42.658;23.374;2023-03-04T15:47:12;94187.84;;;14.87;43.78
27958;BME280;15295;42.658;23.374;2023-03-04T15:49:40;94180.50;;;14.68;43.82
27958;BME280;15295;42.658;23.374;2023-03-04T15:52:18;94191.41;;;14.72;44.11
27958;BME280;15295;42.658;23.374;2023-03-04T15:54:47;94187.03;;;14.74;44.31
27958;BME280;15295;42.658;23.374;2023-03-04T15:57:22;94154.47;;;14.56;44.11
27958;BME280;15295;42.658;23.374;2023-03-04T15:59:48;94159.22;;;14.56;44.19
27958;BME280;15295;42.658;23.374;2023-03-04T16:02:19;94180.28;;;14.62;44.37
27958;BME280;15295;42.658;23.374;2023-03-04T16:04:46;94197.28;;;14.57;44.34
27958;BME280;15295;42.658;23.374;2023-03-04T16:07:21;94202.53;;;14.52;44.55
27958;BME280;15295;42.658;23.374;2023-03-04T16:09:54;94196.19;;;14.39;44.81
27958;BME280;15295;42.658;23.374;2023-03-04T16:12:21;94184.91;;;14.33;44.68
27958;BME280;15295;42.658;23.374;2023-03-04T16:14:46;94186.81;;;14.36;44.65
27958;BME280;15295;42.658;23.374;2023-03-04T16:17:13;94196.59;;;14.37;44.85
27958;BME280;15295;42.658;23.374;2023-03-04T16:19:44;94154.94;;;14.07;45.10
27958;BME280;15295;42.658;23.374;2023-03-04T16:22:15;94192.03;;;14.31;44.87
27958;BME280;15295;42.658;23.374;2023-03-04T16:24:42;94196.00;;;14.30;45.12